Time;durP1;ratioP1;P1;durP2;ratioP2;P2;SDS_P1;SDS_P2;PMS_P1;PMS_P2;Temp;Humidity;BMP_temperature;BMP_pressure;BME280_temperature;BME280_humidity;BME280_pressure;Samples;Min_cycle;Max_cycle;Signal;HPM_P1;HPM_P2
2023/04/04 00:00:20;;;;;;;10.82;6.63;;;1.30;99.90;;;;;;5062751;28;20135;-74
2023/04/04 00:02:47;;;;;;;11.80;7.22;;;1.30;99.90;;;;;;5053040;28;20499;-74
2023/04/04 00:05:12;;;;;;;17.20;7.60;;;1.30;99.90;;;;;;5056398;28;20092;-73
2023/04/04 00:07:39;;;;;;;19.85;6.18;;;1.30;99.90;;;;;;5067285;28;20506;-73
2023/04/04 00:10:05;;;;;;;11.52;7.68;;;1.30;99.90;;;;;;5062993;28;20043;-74
2023/04/04 00:12:31;;;;;;;13.88;8.13;;;1.30;99.90;;;;;;5065616;28;20446;-73
2023/04/04 00:14:57;;;;;;;9.57;7.03;;;1.20;99.90;;;;;;5047848;28;20051;-74
2023/04/04 00:17:22;;;;;;;10.43;6.93;;;1.20;99.90;;;;;;5068515;28;20045;-74
2023/04/04 00:19:48;;;;;;;12.02;6.60;;;1.20;99.90;;;;;;5060666;28;20056;-73
2023/04/04 00:22:14;;;;;;;10.82;6.93;;;1.20;99.90;;;;;;5060543;28;20040;-73
2023/04/04 00:24:40;;;;;;;11.02;7.32;;;1.20;99.90;;;;;;5067953;28;20106;-73
2023/04/04 00:27:06;;;;;;;10.80;6.68;;;1.20;99.90;;;;;;5062213;28;20049;-73
2023/04/04 00:29:33;;;;;;;12.55;7.43;;;1.10;99.90;;;;;;5064072;28;20048;-74
2023/04/04 00:31:59;;;;;;;10.93;7.20;;;1.10;99.90;;;;;;5066664;28;20762;-73
2023/04/04 00:34:25;;;;;;;9.25;6.75;;;1.10;99.90;;;;;;5062843;28;20052;-73
2023/04/04 00:36:51;;;;;;;10.25;6.35;;;1.10;99.90;;;;;;5063385;28;20048;-73
2023/04/04 00:39:17;;;;;;;9.60;6.97;;;1.10;99.90;;;;;;5054096;28;20064;-73
2023/04/04 00:41:43;;;;;;;9.38;7.10;;;1.00;99.90;;;;;;5063657;28;20053;-73
2023/04/04 00:44:08;;;;;;;12.23;7.38;;;1.00;99.90;;;;;;5056175;28;20056;-73
2023/04/04 00:46:34;;;;;;;8.85;6.63;;;1.00;99.90;;;;;;5066654;28;20071;-73
2023/04/04 00:49:00;;;;;;;9.60;7.55;;;0.90;99.90;;;;;;5059870;28;20098;-73
2023/04/04 00:51:26;;;;;;;14.25;7.13;;;1.00;99.90;;;;;;5041219;28;20083;-73
2023/04/04 00:53:52;;;;;;;11.07;8.65;;;1.00;99.90;;;;;;5066491;28;20040;-73
2023/04/04 00:56:19;;;;;;;13.02;8.02;;;0.90;99.90;;;;;;5064658;28;20054;-73
2023/04/04 00:58:45;;;;;;;11.10;7.80;;;0.90;99.90;;;;;;5061918;28;20052;-73
2023/04/04 01:01:12;;;;;;;9.80;7.53;;;0.90;99.90;;;;;;5064930;28;20041;-73
2023/04/04 01:03:38;;;;;;;8.80;7.00;;;0.90;99.90;;;;;;5058199;28;20048;-73
2023/04/04 01:06:05;;;;;;;8.38;7.03;;;0.90;99.90;;;;;;5049213;28;20053;-73
2023/04/04 01:08:34;;;;;;;12.63;9.02;;;0.80;99.90;;;;;;5066851;28;20114;-73
2023/04/04 01:10:59;;;;;;;16.55;9.05;;;0.80;99.90;;;;;;5063967;28;20099;-73
2023/04/04 01:13:26;;;;;;;10.20;8.52;;;0.80;99.90;;;;;;5059505;28;20073;-73
2023/04/04 01:15:52;;;;;;;12.32;7.97;;;0.70;99.90;;;;;;5047380;28;20094;-73
2023/04/04 01:18:21;;;;;;;11.52;8.18;;;0.80;99.90;;;;;;5053981;28;20044;-73
2023/04/04 01:20:52;;;;;;;9.70;8.57;;;0.80;99.90;;;;;;5061436;28;20048;-73
2023/04/04 01:23:20;;;;;;;9.30;7.45;;;0.70;99.90;;;;;;5064503;28;20075;-73
2023/04/04 01:25:47;;;;;;;11.43;8.77;;;0.70;99.90;;;;;;5057927;28;20052;-73
2023/04/04 01:28:13;;;;;;;10.15;7.45;;;0.70;99.90;;;;;;5058644;28;20127;-73
2023/04/04 01:30:40;;;;;;;11.68;7.90;;;0.70;99.90;;;;;;5063130;28;20167;-73
2023/04/04 01:33:19;;;;;;;14.13;8.73;;;0.60;99.90;;;;;;5062105;28;20128;-73
2023/04/04 01:36:03;;;;;;;12.73;9.68;;;0.60;99.90;;;;;;5062118;28;20060;-73
2023/04/04 01:38:49;;;;;;;13.13;9.00;;;0.60;99.90;;;;;;5061172;28;20049;-73
2023/04/04 01:41:18;;;;;;;10.95;7.72;;;0.60;99.90;;;;;;5071147;28;20057;-73
2023/04/04 01:43:45;;;;;;;12.63;8.93;;;0.50;99.90;;;;;;5070766;28;20048;-73
2023/04/04 01:46:12;;;;;;;13.48;9.00;;;0.50;99.90;;;;;;5064995;28;20122;-73
2023/04/04 01:48:37;;;;;;;15.57;8.48;;;0.50;99.90;;;;;;5066496;28;20040;-73
2023/04/04 01:51:03;;;;;;;15.95;11.32;;;0.50;99.90;;;;;;5063780;28;20544;-73
2023/04/04 01:53:29;;;;;;;11.55;9.32;;;0.50;99.90;;;;;;5064208;28;20040;-73
2023/04/04 01:55:55;;;;;;;17.08;10.10;;;0.50;99.90;;;;;;5069659;28;20060;-73
2023/04/04 01:58:21;;;;;;;13.05;10.13;;;0.40;99.90;;;;;;5068593;28;20051;-73
2023/04/04 02:00:47;;;;;;;12.05;9.43;;;0.50;99.90;;;;;;5069794;28;20044;-73
2023/04/04 02:03:12;;;;;;;14.13;10.00;;;0.40;99.90;;;;;;5048880;28;20558;-73
2023/04/04 02:05:38;;;;;;;13.50;9.43;;;0.40;99.90;;;;;;5067289;28;20095;-73
2023/04/04 02:08:05;;;;;;;16.98;10.70;;;0.40;99.90;;;;;;5069267;28;20056;-73
2023/04/04 02:10:31;;;;;;;13.00;9.73;;;0.40;99.90;;;;;;5061966;28;20404;-73
2023/04/04 02:12:57;;;;;;;12.57;10.65;;;0.40;99.90;;;;;;5060922;28;20128;-73
2023/04/04 02:15:24;;;;;;;15.65;9.98;;;0.40;99.90;;;;;;5068570;28;20490;-73
2023/04/04 02:17:52;;;;;;;13.60;10.15;;;0.40;99.90;;;;;;5064897;28;20070;-73
2023/04/04 02:20:18;;;;;;;17.85;9.93;;;0.30;99.90;;;;;;5068348;28;20042;-73
2023/04/04 02:22:54;;;;;;;17.15;10.40;;;0.30;99.90;;;;;;5066048;28;20048;-73
2023/04/04 02:25:24;;;;;;;13.10;10.27;;;0.30;99.90;;;;;;5063244;28;20654;-73
2023/04/04 02:27:50;;;;;;;14.07;9.85;;;0.30;99.90;;;;;;5063204;28;20048;-73
2023/04/04 02:30:16;;;;;;;14.45;9.73;;;0.30;99.90;;;;;;5063632;28;20493;-73
2023/04/04 02:32:42;;;;;;;13.13;10.30;;;0.30;99.90;;;;;;5057983;28;20171;-73
2023/04/04 02:35:08;;;;;;;16.10;10.15;;;0.20;99.90;;;;;;5062476;28;20503;-73
2023/04/04 02:37:33;;;;;;;15.18;10.55;;;0.20;99.90;;;;;;5068100;28;20044;-73
2023/04/04 02:39:59;;;;;;;14.45;9.85;;;0.20;99.90;;;;;;5064376;28;20178;-72
2023/04/04 02:42:25;;;;;;;16.00;9.65;;;0.20;99.90;;;;;;5060039;28;20115;-73
2023/04/04 02:44:50;;;;;;;15.95;10.25;;;0.20;99.90;;;;;;5067908;28;20194;-73
2023/04/04 02:47:16;;;;;;;20.77;10.07;;;0.20;99.90;;;;;;5068776;28;20547;-72
2023/04/04 02:49:42;;;;;;;15.48;9.65;;;0.10;99.90;;;;;;5052481;28;20603;-73
2023/04/04 02:52:07;;;;;;;16.50;9.32;;;0.10;99.90;;;;;;5063591;28;20234;-73
2023/04/04 02:54:33;;;;;;;12.75;10.00;;;0.10;99.90;;;;;;5057210;28;20080;-73
2023/04/04 02:56:59;;;;;;;14.23;8.77;;;0.10;99.90;;;;;;5060068;28;20054;-73
2023/04/04 02:59:25;;;;;;;11.52;10.07;;;0.10;99.90;;;;;;5068570;28;20440;-72
2023/04/04 03:01:50;;;;;;;11.35;8.55;;;0.10;99.90;;;;;;5064799;28;20825;-73
2023/04/04 03:04:18;;;;;;;11.10;9.38;;;0.00;99.90;;;;;;5068778;28;20044;-73
2023/04/04 03:06:44;;;;;;;13.75;9.25;;;0.00;99.90;;;;;;5067199;28;20052;-73
2023/04/04 03:09:10;;;;;;;13.38;9.25;;;0.00;99.90;;;;;;5067529;28;20494;-73
2023/04/04 03:11:37;;;;;;;16.40;9.57;;;0.00;99.90;;;;;;5067788;28;20052;-73
2023/04/04 03:14:02;;;;;;;17.98;9.98;;;-0.10;99.90;;;;;;5068734;28;20067;-73
2023/04/04 03:16:28;;;;;;;10.88;9.18;;;-0.10;99.90;;;;;;5069470;28;20511;-72
2023/04/04 03:18:54;;;;;;;9.85;7.80;;;-0.10;99.90;;;;;;5069064;28;20494;-73
2023/04/04 03:21:21;;;;;;;11.32;9.60;;;-0.10;99.90;;;;;;5059869;28;20044;-73
2023/04/04 03:23:46;;;;;;;19.83;9.15;;;-0.10;99.90;;;;;;5049613;28;20701;-73
2023/04/04 03:26:12;;;;;;;10.38;8.55;;;-0.20;99.90;;;;;;5056834;28;20070;-73
2023/04/04 03:28:38;;;;;;;12.15;8.93;;;-0.20;99.90;;;;;;5067056;28;20185;-73
2023/04/04 03:31:05;;;;;;;12.70;8.88;;;-0.20;99.90;;;;;;5048659;28;20048;-72
2023/04/04 03:33:32;;;;;;;14.75;9.27;;;-0.20;99.90;;;;;;5068851;28;20561;-73
2023/04/04 03:35:58;;;;;;;13.30;8.75;;;-0.20;99.90;;;;;;5066833;28;20099;-73
2023/04/04 03:38:24;;;;;;;13.70;8.38;;;-0.30;99.90;;;;;;5065429;28;20059;-73
2023/04/04 03:40:51;;;;;;;12.25;9.07;;;-0.30;99.90;;;;;;5061196;28;20491;-73
2023/04/04 03:43:16;;;;;;;18.60;9.35;;;-0.30;99.90;;;;;;5065827;28;20060;-73
2023/04/04 03:45:42;;;;;;;10.98;8.75;;;-0.30;99.90;;;;;;5064951;28;20048;-73
2023/04/04 03:48:10;;;;;;;13.20;9.32;;;-0.40;99.90;;;;;;5065708;28;20055;-72
2023/04/04 03:50:36;;;;;;;14.75;8.73;;;-0.40;99.90;;;;;;5064793;28;20077;-72
2023/04/04 03:53:02;;;;;;;15.80;9.20;;;-0.40;99.90;;;;;;5049275;28;20048;-72
2023/04/04 03:55:28;;;;;;;17.58;8.60;;;-0.40;99.90;;;;;;5052228;28;20041;-72
2023/04/04 03:57:53;;;;;;;10.75;8.35;;;-0.40;99.90;;;;;;5060573;28;20055;-72
2023/04/04 04:00:19;;;;;;;10.13;8.70;;;-0.40;99.90;;;;;;5059723;28;20052;-73
2023/04/04 04:02:45;;;;;;;12.23;9.00;;;-0.50;99.90;;;;;;5059604;28;20056;-72
2023/04/04 04:05:10;;;;;;;14.95;8.90;;;-0.50;99.90;;;;;;5068065;28;20048;-72
2023/04/04 04:07:36;;;;;;;10.18;8.07;;;-0.50;99.90;;;;;;5060004;28;20044;-72
2023/04/04 04:10:02;;;;;;;16.35;9.05;;;-0.50;99.90;;;;;;5056351;28;20158;-72
2023/04/04 04:12:28;;;;;;;10.48;8.02;;;-0.50;99.90;;;;;;5060118;28;20040;-73
2023/04/04 04:14:53;;;;;;;13.75;8.38;;;-0.50;99.90;;;;;;5080777;28;20052;-72
2023/04/04 04:17:19;;;;;;;11.90;7.95;;;-0.60;99.90;;;;;;5068624;28;20073;-72
2023/04/04 04:19:45;;;;;;;12.75;9.23;;;-0.60;99.90;;;;;;5060785;28;20044;-72
2023/04/04 04:22:11;;;;;;;14.18;9.32;;;-0.50;99.90;;;;;;5059658;28;20040;-72
2023/04/04 04:24:37;;;;;;;14.55;8.93;;;-0.60;99.90;;;;;;5050699;28;20056;-72
2023/04/04 04:27:03;;;;;;;12.05;8.20;;;-0.60;99.90;;;;;;5065259;28;20040;-73
2023/04/04 04:29:30;;;;;;;10.52;8.07;;;-0.60;99.90;;;;;;5068004;28;20040;-73
2023/04/04 04:31:55;;;;;;;8.52;7.63;;;-0.70;99.90;;;;;;5063922;28;20509;-73
2023/04/04 04:34:21;;;;;;;13.00;9.65;;;-0.70;99.90;;;;;;5064060;28;20048;-72
2023/04/04 04:36:47;;;;;;;14.02;9.48;;;-0.70;99.90;;;;;;5062128;28;20067;-72
2023/04/04 04:39:12;;;;;;;9.48;8.30;;;-0.70;99.90;;;;;;5064334;28;20036;-72
2023/04/04 04:41:38;;;;;;;12.00;8.63;;;-0.70;99.90;;;;;;5062544;28;20110;-72
2023/04/04 04:44:04;;;;;;;12.30;8.93;;;-0.70;99.90;;;;;;5067401;28;20414;-72
2023/04/04 04:46:31;;;;;;;11.15;8.43;;;-0.70;99.90;;;;;;5060757;28;20052;-72
2023/04/04 04:48:56;;;;;;;9.90;8.10;;;-0.70;99.90;;;;;;5067035;28;20036;-72
2023/04/04 04:51:22;;;;;;;9.82;7.95;;;-0.80;99.90;;;;;;5065194;28;20033;-72
2023/04/04 04:53:47;;;;;;;13.40;9.80;;;-0.80;99.90;;;;;;5064602;28;20166;-72
2023/04/04 04:56:13;;;;;;;13.20;8.77;;;-0.80;99.90;;;;;;5063659;28;20044;-72
2023/04/04 04:58:39;;;;;;;12.18;9.07;;;-0.80;99.90;;;;;;5066656;28;20075;-72
2023/04/04 05:01:05;;;;;;;9.35;7.80;;;-0.80;99.90;;;;;;5067163;28;20116;-72
2023/04/04 05:03:30;;;;;;;13.68;8.88;;;-0.70;99.90;;;;;;5049079;28;20494;-72
2023/04/04 05:05:57;;;;;;;11.43;8.48;;;-0.70;99.90;;;;;;5059065;28;20105;-72
2023/04/04 05:08:22;;;;;;;13.98;9.18;;;-0.70;99.90;;;;;;5063568;28;20049;-72
2023/04/04 05:10:49;;;;;;;10.90;8.65;;;-0.70;99.90;;;;;;5049681;28;20040;-72
2023/04/04 05:13:15;;;;;;;10.95;8.13;;;-0.70;99.90;;;;;;5059890;28;20056;-72
2023/04/04 05:15:40;;;;;;;15.60;9.07;;;-0.70;99.90;;;;;;5071559;28;20040;-72
2023/04/04 05:18:06;;;;;;;12.50;7.68;;;-0.70;99.90;;;;;;5069236;28;20043;-72
2023/04/04 05:20:32;;;;;;;10.23;8.73;;;-0.70;99.90;;;;;;5068959;28;20049;-72
2023/04/04 05:22:57;;;;;;;16.55;8.30;;;-0.70;99.90;;;;;;5064427;28;20139;-72
2023/04/04 05:25:23;;;;;;;11.52;8.10;;;-0.60;99.90;;;;;;5068811;28;20444;-72
2023/04/04 05:27:49;;;;;;;13.60;8.88;;;-0.50;99.90;;;;;;5069608;28;20056;-72
2023/04/04 05:30:15;;;;;;;11.35;8.70;;;-0.10;99.90;;;;;;5063451;28;20045;-72
2023/04/04 05:32:44;;;;;;;16.65;9.93;;;0.50;99.90;;;;;;5067074;28;20048;-72
2023/04/04 05:35:10;;;;;;;21.75;10.13;;;1.10;99.90;;;;;;5070335;28;20436;-72
2023/04/04 05:37:39;;;;;;;13.82;9.30;;;1.70;99.90;;;;;;5068827;28;20037;-72
2023/04/04 05:40:06;;;;;;;14.90;9.68;;;2.40;99.90;;;;;;5065360;28;20040;-72
2023/04/04 05:42:31;;;;;;;10.27;7.93;;;2.50;99.90;;;;;;5060538;28;20486;-72
2023/04/04 05:44:57;;;;;;;9.80;8.35;;;2.30;99.90;;;;;;5069995;28;20045;-72
2023/04/04 05:47:23;;;;;;;13.98;8.65;;;2.10;99.90;;;;;;5061760;28;20614;-72
2023/04/04 05:49:48;;;;;;;11.15;8.15;;;2.10;99.90;;;;;;5060074;28;20040;-72
2023/04/04 05:52:15;;;;;;;13.43;8.90;;;2.50;99.90;;;;;;5068724;28;20052;-72
2023/04/04 05:54:41;;;;;;;10.05;8.30;;;2.80;99.90;;;;;;5063126;28;20044;-72
2023/04/04 05:57:07;;;;;;;11.82;8.55;;;3.20;99.90;;;;;;5063165;28;20484;-72
2023/04/04 05:59:33;;;;;;;12.27;8.23;;;3.60;99.90;;;;;;5067064;28;20063;-71
2023/04/04 06:01:58;;;;;;;11.48;8.55;;;3.70;99.90;;;;;;5066875;28;20067;-72
2023/04/04 06:04:24;;;;;;;10.55;7.97;;;3.50;99.90;;;;;;5059047;28;20147;-72
2023/04/04 06:06:50;;;;;;;9.10;7.55;;;3.30;99.90;;;;;;5065932;28;20040;-72
2023/04/04 06:09:16;;;;;;;10.50;7.95;;;3.40;99.90;;;;;;5064736;28;20056;-72
2023/04/04 06:11:42;;;;;;;12.27;8.88;;;3.40;99.90;;;;;;5060738;28;20049;-72
2023/04/04 06:14:07;;;;;;;10.18;8.18;;;3.50;99.90;;;;;;5066592;28;20044;-71
2023/04/04 06:16:35;;;;;;;19.35;8.88;;;3.50;99.90;;;;;;5068607;28;20067;-71
2023/04/04 06:19:00;;;;;;;11.10;9.02;;;3.40;99.90;;;;;;5065212;28;20398;-72
2023/04/04 06:21:26;;;;;;;15.25;8.55;;;3.30;99.90;;;;;;5058482;28;20116;-71
2023/04/04 06:23:52;;;;;;;19.33;8.73;;;3.10;99.90;;;;;;5059116;28;20447;-71
2023/04/04 06:26:18;;;;;;;18.58;9.88;;;3.10;99.90;;;;;;5067123;28;20481;-71
2023/04/04 06:28:50;;;;;;;15.15;9.52;;;3.00;99.90;;;;;;5068514;28;20555;-71
2023/04/04 06:31:16;;;;;;;13.52;8.45;;;2.90;99.90;;;;;;5061982;28;20054;-71
2023/04/04 06:33:42;;;;;;;13.32;8.15;;;2.80;99.90;;;;;;5054400;28;20040;-72
2023/04/04 06:36:08;;;;;;;13.07;10.00;;;2.70;99.90;;;;;;5065993;28;20121;-72
2023/04/04 06:38:34;;;;;;;11.77;8.85;;;2.70;99.90;;;;;;5064876;28;20501;-71
2023/04/04 06:41:00;;;;;;;10.18;8.38;;;2.70;99.90;;;;;;5058494;28;20032;-70
2023/04/04 06:43:26;;;;;;;11.55;8.95;;;2.90;99.90;;;;;;5070264;28;20880;-71
2023/04/04 06:45:52;;;;;;;9.95;8.23;;;3.10;99.90;;;;;;5064934;28;20052;-71
2023/04/04 06:48:18;;;;;;;16.80;8.95;;;3.20;99.90;;;;;;5066156;28;20098;-71
2023/04/04 06:50:43;;;;;;;17.02;10.35;;;3.20;99.90;;;;;;5067618;28;20064;-72
2023/04/04 06:53:11;;;;;;;12.70;9.20;;;3.40;99.90;;;;;;5060845;28;20044;-72
2023/04/04 06:55:36;;;;;;;15.35;9.73;;;3.60;99.90;;;;;;5060309;28;20049;-72
2023/04/04 06:58:02;;;;;;;13.27;9.30;;;3.90;99.90;;;;;;5066551;28;20067;-72
2023/04/04 07:00:27;;;;;;;10.90;7.82;;;4.00;99.90;;;;;;5062982;28;20525;-72
2023/04/04 07:03:00;;;;;;;10.43;8.32;;;4.20;99.90;;;;;;5055769;28;20057;-72
2023/04/04 07:05:26;;;;;;;13.18;8.50;;;4.40;99.90;;;;;;5081373;28;20056;-72
2023/04/04 07:07:55;;;;;;;13.48;8.65;;;4.40;99.90;;;;;;5059469;28;20048;-72
2023/04/04 07:10:25;;;;;;;13.68;8.20;;;4.60;99.90;;;;;;5054338;28;20044;-72
2023/04/04 07:12:51;;;;;;;11.25;8.88;;;4.60;99.90;;;;;;5059836;28;20058;-72
2023/04/04 07:15:17;;;;;;;10.00;7.93;;;4.50;99.90;;;;;;5069046;28;20037;-72
2023/04/04 07:17:43;;;;;;;14.52;9.23;;;4.30;99.90;;;;;;5065267;28;20041;-72
2023/04/04 07:20:09;;;;;;;9.30;8.30;;;4.20;99.90;;;;;;5061835;28;20155;-72
2023/04/04 07:22:38;;;;;;;17.85;9.15;;;4.30;99.90;;;;;;5060338;28;20040;-72
2023/04/04 07:25:05;;;;;;;23.45;8.90;;;4.20;99.90;;;;;;5066950;28;20049;-72
2023/04/04 07:27:30;;;;;;;16.23;8.90;;;4.10;99.90;;;;;;5058710;28;20037;-73
2023/04/04 07:29:56;;;;;;;15.10;9.85;;;4.10;99.90;;;;;;5067615;28;20405;-73
2023/04/04 07:32:22;;;;;;;15.00;8.80;;;4.10;99.90;;;;;;5064805;28;20040;-73
2023/04/04 07:34:49;;;;;;;9.77;8.73;;;4.20;99.90;;;;;;5065558;28;20482;-73
2023/04/04 07:37:15;;;;;;;11.10;8.48;;;4.20;99.90;;;;;;5061616;28;20127;-73
2023/04/04 07:39:40;;;;;;;10.10;8.65;;;4.30;99.90;;;;;;5062517;28;20206;-73
2023/04/04 07:42:07;;;;;;;9.98;8.90;;;4.30;99.90;;;;;;5066059;28;20040;-73
2023/04/04 07:44:32;;;;;;;11.30;9.02;;;4.40;99.90;;;;;;5057012;28;20072;-73
2023/04/04 07:46:58;;;;;;;10.07;8.90;;;4.60;99.90;;;;;;5058366;28;20561;-73
2023/04/04 07:49:24;;;;;;;12.48;10.23;;;4.60;99.90;;;;;;5065998;28;20044;-73
2023/04/04 07:51:49;;;;;;;12.55;9.38;;;4.60;99.90;;;;;;5060041;28;20124;-74
2023/04/04 07:54:15;;;;;;;10.48;8.75;;;4.70;99.90;;;;;;5059836;28;20139;-74
2023/04/04 07:56:41;;;;;;;11.52;8.68;;;4.80;99.90;;;;;;5056846;28;20524;-74
2023/04/04 07:59:07;;;;;;;15.88;8.93;;;4.90;99.90;;;;;;5068114;28;20140;-74
2023/04/04 08:01:32;;;;;;;13.32;9.13;;;5.00;99.90;;;;;;5057192;28;20045;-74
2023/04/04 08:03:58;;;;;;;14.82;9.20;;;5.10;99.90;;;;;;5066009;28;20062;-74
2023/04/04 08:06:24;;;;;;;11.85;9.38;;;5.10;99.90;;;;;;5054365;28;20474;-74
2023/04/04 08:08:51;;;;;;;15.15;7.40;;;5.30;99.90;;;;;;5061397;28;20063;-74
2023/04/04 08:11:17;;;;;;;14.60;5.97;;;5.50;99.90;;;;;;5063998;28;20081;-74
2023/04/04 08:13:43;;;;;;;9.65;5.10;;;5.60;99.90;;;;;;5061495;28;20547;-74
2023/04/04 08:16:09;;;;;;;10.55;6.57;;;5.70;99.90;;;;;;5057694;28;20175;-74
2023/04/04 08:18:34;;;;;;;7.60;5.82;;;5.80;99.90;;;;;;5059135;28;20037;-74
2023/04/04 08:21:00;;;;;;;10.32;6.20;;;5.90;99.90;;;;;;5059056;28;20040;-74
2023/04/04 08:23:26;;;;;;;7.75;6.15;;;5.90;99.90;;;;;;5067015;28;20124;-74
2023/04/04 08:25:54;;;;;;;6.82;5.68;;;5.80;99.90;;;;;;5063069;28;20055;-74
2023/04/04 08:28:19;;;;;;;13.85;5.45;;;5.90;99.90;;;;;;5062562;28;20120;-74
2023/04/04 08:30:46;;;;;;;7.72;5.82;;;6.10;99.90;;;;;;5064145;28;20172;-74
2023/04/04 08:33:12;;;;;;;12.48;6.15;;;6.20;99.90;;;;;;5060121;28;20386;-74
2023/04/04 08:35:38;;;;;;;8.35;5.28;;;6.30;99.90;;;;;;5057886;28;20142;-74
2023/04/04 08:38:07;;;;;;;8.98;6.15;;;6.30;98.60;;;;;;5059023;28;20131;-73
2023/04/04 08:40:32;;;;;;;9.27;6.05;;;6.40;96.90;;;;;;5051881;28;20088;-73
2023/04/04 08:42:59;;;;;;;10.68;4.90;;;6.40;99.20;;;;;;5060859;28;20064;-73
2023/04/04 08:45:29;;;;;;;9.60;5.55;;;6.50;94.60;;;;;;5058448;28;20049;-74
2023/04/04 08:47:57;;;;;;;8.13;4.32;;;6.50;99.00;;;;;;5064680;28;20048;-73
2023/04/04 08:50:24;;;;;;;10.75;5.28;;;6.50;91.00;;;;;;5053101;28;20072;-74
2023/04/04 08:52:50;;;;;;;8.68;4.90;;;6.50;78.70;;;;;;5058199;28;20137;-73
2023/04/04 08:55:16;;;;;;;9.38;4.97;;;6.40;74.70;;;;;;5062834;28;20060;-74
2023/04/04 08:57:42;;;;;;;11.35;4.63;;;6.40;75.00;;;;;;5056400;28;20075;-74
2023/04/04 09:00:08;;;;;;;7.25;5.30;;;6.50;75.40;;;;;;5056097;28;20079;-73
2023/04/04 09:02:56;;;;;;;5.30;4.47;;;6.50;73.90;;;;;;5061778;28;20055;-74
2023/04/04 09:05:22;;;;;;;9.90;5.43;;;6.70;71.00;;;;;;5058503;28;20044;-74
2023/04/04 09:07:50;;;;;;;11.73;5.43;;;6.70;71.80;;;;;;5055094;28;20406;-74
2023/04/04 09:10:16;;;;;;;5.65;4.25;;;6.70;71.50;;;;;;5062343;28;20041;-74
2023/04/04 09:12:46;;;;;;;5.97;4.65;;;6.80;73.50;;;;;;5061964;28;20044;-74
2023/04/04 09:15:12;;;;;;;7.72;4.93;;;7.00;72.90;;;;;;5055670;28;20116;-74
2023/04/04 09:17:39;;;;;;;8.52;4.90;;;7.20;72.90;;;;;;5065370;28;20060;-74
2023/04/04 09:20:42;;;;;;;10.50;5.45;;;7.40;71.60;;;;;;5065851;28;20044;-74
2023/04/04 09:23:13;;;;;;;10.52;4.80;;;7.50;69.00;;;;;;5066105;28;20080;-74
2023/04/04 09:25:46;;;;;;;10.60;5.40;;;7.60;68.40;;;;;;5057356;28;20045;-74
2023/04/04 09:28:14;;;;;;;9.25;4.85;;;7.60;66.90;;;;;;5058093;28;20041;-74
2023/04/04 09:30:40;;;;;;;8.57;5.50;;;7.80;68.80;;;;;;5061277;28;20048;-74
2023/04/04 09:33:09;;;;;;;7.13;4.25;;;7.90;66.40;;;;;;5056851;28;20045;-74
2023/04/04 09:35:42;;;;;;;10.60;4.85;;;8.00;65.80;;;;;;5052940;28;20045;-74
2023/04/04 09:38:08;;;;;;;7.30;4.10;;;8.20;65.80;;;;;;5064398;28;20059;-73
2023/04/04 09:40:39;;;;;;;4.47;3.80;;;8.30;65.30;;;;;;5054602;28;20417;-73
2023/04/04 09:43:07;;;;;;;7.10;4.20;;;8.30;64.60;;;;;;5062286;28;20781;-73
2023/04/04 09:45:39;;;;;;;6.75;4.25;;;8.60;66.70;;;;;;5059588;28;20101;-73
2023/04/04 09:48:08;;;;;;;12.63;5.15;;;8.50;64.80;;;;;;5059694;28;20064;-73
2023/04/04 09:50:36;;;;;;;12.68;5.07;;;8.60;63.20;;;;;;5060503;28;20052;-73
2023/04/04 09:53:01;;;;;;;8.95;4.25;;;8.50;62.90;;;;;;5059415;28;20041;-73
2023/04/04 09:55:35;;;;;;;8.93;4.78;;;8.70;65.10;;;;;;5055437;28;20064;-73
2023/04/04 09:58:23;;;;;;;5.38;3.58;;;8.80;62.90;;;;;;5058202;28;20056;-73
2023/04/04 10:00:52;;;;;;;11.32;3.80;;;8.70;61.70;;;;;;5054461;28;20521;-73
2023/04/04 10:03:22;;;;;;;7.25;3.75;;;8.70;61.90;;;;;;5064881;28;20049;-73
2023/04/04 10:05:53;;;;;;;9.75;5.32;;;8.70;62.10;;;;;;5056833;28;20509;-73
2023/04/04 10:08:22;;;;;;;7.30;3.97;;;8.60;60.90;;;;;;5068485;28;20117;-73
2023/04/04 10:10:59;;;;;;;5.88;3.88;;;8.70;61.80;;;;;;5067592;28;20123;-72
2023/04/04 10:13:30;;;;;;;5.75;4.38;;;8.80;63.40;;;;;;5065591;28;20064;-73
2023/04/04 10:16:01;;;;;;;8.13;3.97;;;9.10;62.40;;;;;;5068942;28;20099;-73
2023/04/04 10:18:29;;;;;;;6.82;3.60;;;8.90;60.40;;;;;;5064462;28;20045;-73
2023/04/04 10:20:56;;;;;;;8.25;3.78;;;8.80;60.20;;;;;;5065062;28;20406;-73
2023/04/04 10:23:23;;;;;;;6.25;4.00;;;8.80;61.30;;;;;;5064383;28;20051;-73
2023/04/04 10:25:51;;;;;;;11.00;4.30;;;8.80;60.30;;;;;;5064835;28;20417;-73
2023/04/04 10:28:19;;;;;;;6.65;4.57;;;8.90;61.20;;;;;;5065449;28;20037;-73
2023/04/04 10:31:34;;;;;;;15.43;4.65;;;9.00;62.60;;;;;;5066820;28;20045;-73
2023/04/04 10:33:59;;;;;;;10.57;4.95;;;9.30;61.00;;;;;;5049142;28;20057;-73
2023/04/04 10:36:33;;;;;;;8.15;4.70;;;9.50;60.70;;;;;;5061746;28;20044;-73
2023/04/04 10:39:19;;;;;;;14.35;5.30;;;9.70;60.10;;;;;;5066746;28;20052;-73
2023/04/04 10:41:50;;;;;;;7.22;4.50;;;9.70;59.60;;;;;;5062813;28;20053;-73
2023/04/04 10:44:40;;;;;;;11.73;5.22;;;9.60;60.20;;;;;;5067449;28;20040;-73
2023/04/04 10:47:20;;;;;;;5.10;4.30;;;9.90;59.20;;;;;;5056455;28;20056;-73
2023/04/04 10:49:49;;;;;;;9.30;4.07;;;9.90;57.60;;;;;;5063013;28;20561;-73
2023/04/04 10:52:17;;;;;;;12.63;5.28;;;10.00;58.30;;;;;;5062771;28;20045;-73
2023/04/04 10:54:45;;;;;;;;;;;10.30;58.60;;;;;;5060386;28;20128;-73
2023/04/04 10:57:12;;;;;;;21.27;5.20;;;10.10;57.60;;;;;;5064505;28;19924;-72
2023/04/04 10:59:59;;;;;;;6.15;4.07;;;9.90;57.90;;;;;;5067493;28;20037;-73
2023/04/04 11:02:50;;;;;;;10.07;4.68;;;9.70;56.30;;;;;;5059693;28;20049;-73
2023/04/04 11:05:25;;;;;;;6.85;4.25;;;9.60;56.10;;;;;;5064361;28;20406;-73
2023/04/04 11:08:02;;;;;;;7.50;4.47;;;9.50;56.20;;;;;;5067947;28;20047;-73
2023/04/04 11:10:30;;;;;;;6.50;4.05;;;9.70;57.60;;;;;;5068177;28;20075;-73
2023/04/04 11:13:03;;;;;;;;;;;9.70;55.50;;;;;;5061140;28;20056;-73
2023/04/04 11:15:58;;;;;;;6.43;3.60;;;9.80;55.00;;;;;;5059446;28;20325;-72
2023/04/04 11:18:40;;;;;;;7.07;4.28;;;10.00;55.70;;;;;;5059180;28;20048;-73
2023/04/04 11:21:13;;;;;;;5.47;3.60;;;10.00;55.90;;;;;;5055550;28;20086;-73
2023/04/04 11:24:12;;;;;;;7.40;4.38;;;10.10;55.80;;;;;;5066202;28;20048;-73
2023/04/04 11:26:41;;;;;;;6.63;4.10;;;9.90;51.10;;;;;;5065337;28;20051;-73
2023/04/04 11:29:07;;;;;;;6.03;3.45;;;9.70;53.60;;;;;;5063333;28;20123;-73
2023/04/04 11:31:38;;;;;;;5.20;4.25;;;9.60;51.90;;;;;;5053069;28;20106;-73
2023/04/04 11:34:08;;;;;;;8.52;3.88;;;9.50;52.10;;;;;;5054912;28;20102;-73
2023/04/04 11:36:44;;;;;;;11.63;4.53;;;9.60;52.80;;;;;;5062597;28;20049;-73
2023/04/04 11:39:29;;;;;;;6.30;3.45;;;9.70;52.10;;;;;;5063238;28;20523;-73
2023/04/04 11:42:07;;;;;;;5.68;3.90;;;9.70;52.60;;;;;;5055681;28;20622;-73
2023/04/04 11:44:41;;;;;;;12.73;4.85;;;10.00;53.20;;;;;;5067866;28;20091;-74
2023/04/04 11:47:10;;;;;;;4.72;3.42;;;10.20;53.40;;;;;;5067409;28;20098;-74
2023/04/04 11:49:36;;;;;;;;;;;10.50;54.40;;;;;;5066626;28;20072;-74
2023/04/04 11:52:10;;;;;;;6.50;4.20;;;10.60;52.30;;;;;;5065169;28;19920;-73
2023/04/04 11:54:37;;;;;;;4.53;3.60;;;10.60;53.20;;;;;;5067481;28;20044;-73
2023/04/04 11:57:06;;;;;;;5.22;3.65;;;10.70;53.40;;;;;;5061159;28;20105;-73
2023/04/04 11:59:32;;;;;;;11.57;5.05;;;10.70;51.20;;;;;;5063663;28;20418;-73
2023/04/04 12:01:59;;;;;;;4.57;3.95;;;10.60;50.60;;;;;;5061395;28;20132;-73
2023/04/04 12:04:25;;;;;;;6.32;3.92;;;10.30;49.80;;;;;;5064484;28;20078;-73
2023/04/04 12:06:55;;;;;;;7.00;4.80;;;9.90;50.50;;;;;;5067359;28;20040;-73
2023/04/04 12:09:24;;;;;;;9.07;5.05;;;10.00;52.60;;;;;;5061938;28;20080;-73
2023/04/04 12:11:51;;;;;;;8.60;4.75;;;10.20;51.30;;;;;;5058852;28;20758;-73
2023/04/04 12:14:22;;;;;;;5.25;3.90;;;10.20;51.20;;;;;;5066961;28;20053;-73
2023/04/04 12:16:50;;;;;;;5.38;4.32;;;10.30;50.60;;;;;;5068125;28;20048;-73
2023/04/04 12:19:17;;;;;;;6.63;5.30;;;10.40;51.80;;;;;;5065144;28;20707;-73
2023/04/04 12:21:45;;;;;;;7.40;4.53;;;10.80;54.00;;;;;;5060914;28;20052;-73
2023/04/04 12:24:12;;;;;;;6.82;5.07;;;11.20;53.90;;;;;;5066131;28;20052;-73
2023/04/04 12:26:40;;;;;;;11.43;5.00;;;11.50;51.50;;;;;;5065207;28;20040;-74
2023/04/04 12:29:09;;;;;;;5.28;4.43;;;11.60;50.10;;;;;;5066962;28;20079;-73
2023/04/04 12:31:35;;;;;;;;;;;11.40;50.20;;;;;;5063133;28;20074;-74
2023/04/04 12:34:01;;;;;;;14.40;4.55;;;10.90;49.80;;;;;;5067335;28;19978;-73
2023/04/04 12:36:30;;;;;;;8.48;5.30;;;10.40;50.70;;;;;;5067622;28;20333;-73
2023/04/04 12:39:01;;;;;;;7.22;4.63;;;10.20;51.20;;;;;;5067212;28;20052;-73
2023/04/04 12:41:27;;;;;;;6.63;5.28;;;10.20;51.60;;;;;;5062625;28;20041;-73
2023/04/04 12:44:03;;;;;;;10.15;6.10;;;10.30;50.80;;;;;;5061217;28;20064;-73
2023/04/04 12:46:40;;;;;;;13.05;5.07;;;10.40;49.20;;;;;;5065350;28;20045;-73
2023/04/04 12:49:09;;;;;;;14.25;4.82;;;10.50;51.70;;;;;;5063903;28;20452;-73
2023/04/04 12:51:35;;;;;;;6.53;4.80;;;10.60;50.20;;;;;;5065806;28;20516;-73